Impacts TAF Board
For situational awareness. Not to be used for flight planning purposes.
IDs:

KLBB - Lubbock Intl Arpt, TX, US

Issued at 1120 UTC 03 Dec 2021
Updated at 1558 UTC 03 Dec 2021
Potential Impact None Slight Moderate High
Time1553Z 03/16Z 03/17Z 03/18Z 03/19Z 03/20Z 03/21Z 03/22Z 03/23Z 04/00Z 04/01Z 04/02Z 04/03Z 04/04Z>>
Type OBS PRVL PRVL PRVL PRVL PRVL PRVL PRVL PRVL PRVL PRVL PRVL PRVL PRVL
VIS 10 >6 >6 >6 >6 >6 >6 >6 >6 >6 >6 >6 >6 >6
CIG -- -- -- -- -- -- -- -- -- -- -- -- -- --
Cover FEW FEW FEW FEW FEW FEW FEW FEW FEW FEW FEW FEW FEW FEW
FltCat VFR VFR VFR VFR VFR VFR VFR VFR VFR VFR VFR VFR VFR VFR
WX -- -- -- -- -- -- -- -- -- -- -- -- -- --
WDir 260 230 230 260 260 260 260 260 260 260 260 320 320 320
WSpd 6 11 11 18 18 18 18 18 18 18 18 11 11 11
WGst -- -- -- -- -- -- -- -- -- -- -- -- -- --
WSHgt -- -- -- -- -- -- -- -- -- -- -- -- -- --
WSDir -- -- -- -- -- -- -- -- -- -- -- -- -- --
WSSpd -- -- -- -- -- -- -- -- -- -- -- -- -- --
Raw TAF
KLBB 031120Z 0312/0412 23011KT P6SM FEW250
  FM031800 26018KT P6SM FEW250
  FM040200 32011KT P6SM FEW250


Raw METAR
KLBB 031553Z 26006KT 10SM FEW160 FEW250 14/02 A3003 RMK AO2 SLP141 HZ DSNT W-NW T01390022
KLBB 031453Z 24007KT 10SM FEW220 09/02 A3002 RMK AO2 SLP141 T00940017 50004
KLBB 031353Z 25008KT 10SM FEW200 06/01 A3002 RMK AO2 SLP147 T00560011
KLBB 031253Z 25007KT 10SM FEW200 07/02 A3001 RMK AO2 SLP142 T00670017

METAR Board
Radar Display
Forecast Discussion
For situational awareness. Not to be used for flight planning purposes.